Time;durP1;ratioP1;P1;durP2;ratioP2;P2;SDS_P1;SDS_P2;PMS_P1;PMS_P2;Temp;Humidity;BMP_temperature;BMP_pressure;BME280_temperature;BME280_humidity;BME280_pressure;Samples;Min_cycle;Max_cycle;Signal;HPM_P1;HPM_P2
2022/06/09 00:01:13;;;;;;;;;;;27.60;92.40;;;;;;5084057;28;19943;-55
2022/06/09 00:03:59;;;;;;;;;;;27.50;92.60;;;;;;5092962;28;19983;-57
2022/06/09 00:06:27;;;;;;;;;;;27.60;92.60;;;;;;5093282;28;19912;-55
2022/06/09 00:08:54;;;;;;;;;;;27.50;92.70;;;;;;5093065;28;20091;-57
2022/06/09 00:11:22;;;;;;;;;;;27.60;92.70;;;;;;5104175;28;19962;-54
2022/06/09 00:13:48;;;;;;;;;;;27.50;92.70;;;;;;5099855;28;19930;-59
2022/06/09 00:16:15;;;;;;;;;;;27.50;92.60;;;;;;5101688;28;20143;-55
2022/06/09 00:18:42;;;;;;;;;;;27.40;92.60;;;;;;5104174;28;20181;-56
2022/06/09 00:21:08;;;;;;;;;;;27.40;92.70;;;;;;5091144;28;19908;-57
2022/06/09 00:23:35;;;;;;;;;;;27.40;92.80;;;;;;5098346;28;19972;-55
2022/06/09 00:26:01;;;;;;;;;;;27.40;92.80;;;;;;5093395;28;19908;-57
2022/06/09 00:28:27;;;;;;;;;;;27.40;92.80;;;;;;5094053;28;20093;-55
2022/06/09 00:30:54;;;;;;;;;;;27.30;92.70;;;;;;5091590;28;20155;-54
2022/06/09 00:33:20;;;;;;;;;;;27.40;92.70;;;;;;5090139;28;19903;-55
2022/06/09 00:35:46;;;;;;;;;;;27.40;92.60;;;;;;5097350;28;19916;-56
2022/06/09 00:38:12;;;;;;;;;;;27.30;92.60;;;;;;5095374;28;20207;-59
2022/06/09 00:40:38;;;;;;;;;;;27.30;92.90;;;;;;5100809;28;19968;-56
2022/06/09 00:43:05;;;;;;;;;;;27.30;93.00;;;;;;5095144;28;19923;-59
2022/06/09 00:45:34;;;;;;;;;;;27.30;93.00;;;;;;5087113;28;19951;-56
2022/06/09 00:48:03;;;;;;;;;;;27.30;93.00;;;;;;5086710;28;19941;-57
2022/06/09 00:50:29;;;;;;;;;;;27.30;93.10;;;;;;5087257;28;19908;-57
2022/06/09 00:52:58;;;;;;;;;;;27.30;93.20;;;;;;5086276;28;19900;-55
2022/06/09 00:55:26;;;;;;;;;;;27.30;93.30;;;;;;5087904;28;20112;-55
2022/06/09 00:57:57;;;;;;;;;;;27.20;93.40;;;;;;5093663;28;20283;-54
2022/06/09 01:00:28;;;;;;;;;;;27.30;93.50;;;;;;5104381;28;20173;-54
2022/06/09 01:02:56;;;;;;;;;;;27.30;93.50;;;;;;5106877;28;19940;-56
2022/06/09 01:05:23;;;;;;;;;;;27.30;93.40;;;;;;5105383;28;20126;-55
2022/06/09 01:07:52;;;;;;;;;;;27.20;93.50;;;;;;5103617;28;19904;-56
2022/06/09 01:10:18;;;;;;;;;;;27.30;93.50;;;;;;5106260;28;20196;-57
2022/06/09 01:12:46;;;;;;;;;;;27.30;93.60;;;;;;5098176;28;19904;-55
2022/06/09 01:15:17;;;;;;;;;;;27.30;93.70;;;;;;5102082;28;19923;-55
2022/06/09 01:17:49;;;;;;;;;;;27.30;93.70;;;;;;5106314;28;19900;-55
2022/06/09 01:20:31;;;;;;;;;;;27.20;93.70;;;;;;5106268;28;20096;-54
2022/06/09 01:23:12;;;;;;;;;;;27.20;93.80;;;;;;5106019;28;19900;-56
2022/06/09 01:25:47;;;;;;;;;;;27.20;93.90;;;;;;5098575;28;20050;-53
2022/06/09 01:28:19;;;;;;;;;;;27.20;93.90;;;;;;5089236;28;19900;-53
2022/06/09 01:30:46;;;;;;;;;;;27.30;93.90;;;;;;5088776;28;20208;-54
2022/06/09 01:33:18;;;;;;;;;;;27.20;93.80;;;;;;5087728;28;19963;-54
2022/06/09 01:35:48;;;;;;;;;;;27.20;93.80;;;;;;5093754;28;19934;-58
2022/06/09 01:38:14;;;;;;;;;;;27.20;93.70;;;;;;5099097;28;19912;-53
2022/06/09 01:40:40;;;;;;;;;;;27.20;93.80;;;;;;5106484;28;20226;-54
2022/06/09 01:43:07;;;;;;;;;;;27.10;93.70;;;;;;5089130;28;19904;-54
2022/06/09 01:45:42;;;;;;;;;;;27.00;93.60;;;;;;5094156;28;19908;-55
2022/06/09 01:48:10;;;;;;;;;;;27.00;93.80;;;;;;5091623;28;19904;-54
2022/06/09 01:50:57;;;;;;;;;;;27.00;93.80;;;;;;5088322;28;19973;-55
2022/06/09 01:53:55;;;;;;;;;;;27.00;93.70;;;;;;5093967;28;19901;-55
2022/06/09 01:56:25;;;;;;;;;;;27.00;93.90;;;;;;5051491;28;19919;-53
2022/06/09 01:58:54;;;;;;;;;;;27.00;93.80;;;;;;5085325;28;19907;-53
2022/06/09 02:01:21;;;;;;;;;;;26.90;93.50;;;;;;5085280;28;24085;-53
2022/06/09 02:03:50;;;;;;;;;;;26.80;93.50;;;;;;5085001;28;20125;-55
2022/06/09 02:06:16;;;;;;;;;;;26.80;93.20;;;;;;5085092;28;19909;-56
2022/06/09 02:08:43;;;;;;;;;;;26.80;93.10;;;;;;5085076;28;19912;-54
2022/06/09 02:11:10;;;;;;;;;;;26.70;93.00;;;;;;5085247;28;19908;-60
2022/06/09 02:13:42;;;;;;;;;;;26.70;93.10;;;;;;5084686;28;19907;-55
2022/06/09 02:16:11;;;;;;;;;;;26.70;93.10;;;;;;5084496;28;19924;-53
2022/06/09 02:18:39;;;;;;;;;;;26.70;93.10;;;;;;5084790;28;19907;-59
2022/06/09 02:21:09;;;;;;;;;;;26.80;93.10;;;;;;5084575;28;19912;-53
2022/06/09 02:23:36;;;;;;;;;;;26.80;93.20;;;;;;5084936;28;19997;-56
2022/06/09 02:26:03;;;;;;;;;;;26.80;93.50;;;;;;5085386;28;19959;-55
2022/06/09 02:28:29;;;;;;;;;;;26.80;93.80;;;;;;5084447;28;19900;-56
2022/06/09 02:30:56;;;;;;;;;;;26.80;93.80;;;;;;5084933;28;24063;-53
2022/06/09 02:33:22;;;;;;;;;;;26.80;93.90;;;;;;5084600;28;19900;-55
2022/06/09 02:35:49;;;;;;;;;;;26.80;93.90;;;;;;5084323;28;20192;-55
2022/06/09 02:38:15;;;;;;;;;;;26.80;94.00;;;;;;5084509;28;19900;-54
2022/06/09 02:40:42;;;;;;;;;;;26.80;94.00;;;;;;5090133;28;19908;-53
2022/06/09 02:43:08;;;;;;;;;;;26.80;94.00;;;;;;5084367;28;19904;-52
2022/06/09 02:45:34;;;;;;;;;;;26.80;93.90;;;;;;5084136;28;19974;-53
2022/06/09 02:48:01;;;;;;;;;;;26.80;94.10;;;;;;5084240;28;19904;-53
2022/06/09 02:50:27;;;;;;;;;;;26.90;93.90;;;;;;5084208;28;19904;-56
2022/06/09 02:52:53;;;;;;;;;;;26.90;93.80;;;;;;5084388;28;20193;-54
2022/06/09 02:55:20;;;;;;;;;;;26.90;93.70;;;;;;5084575;28;20217;-54
2022/06/09 02:57:46;;;;;;;;;;;26.90;93.70;;;;;;5084143;28;19904;-52
2022/06/09 03:00:14;;;;;;;;;;;26.90;93.60;;;;;;5084089;28;19912;-53
2022/06/09 03:02:41;;;;;;;;;;;26.90;93.60;;;;;;5084654;28;20200;-53
2022/06/09 03:05:08;;;;;;;;;;;26.90;93.60;;;;;;5084542;28;24049;-54
2022/06/09 03:07:34;;;;;;;;;;;26.90;93.60;;;;;;5084127;28;19904;-52
2022/06/09 03:10:00;;;;;;;;;;;26.90;93.50;;;;;;5084358;28;20240;-53
2022/06/09 03:12:27;;;;;;;;;;;26.90;93.60;;;;;;5084061;28;19971;-53
2022/06/09 03:14:53;;;;;;;;;;;26.90;93.50;;;;;;5083490;28;19916;-53
2022/06/09 03:17:19;;;;;;;;;;;26.90;93.40;;;;;;5084019;28;20123;-54
2022/06/09 03:19:45;;;;;;;;;;;26.90;93.40;;;;;;5084294;28;20200;-53
2022/06/09 03:22:12;;;;;;;;;;;26.90;93.50;;;;;;5084089;28;20181;-52
2022/06/09 03:24:38;;;;;;;;;;;26.90;93.50;;;;;;5084234;28;20123;-52
2022/06/09 03:27:05;;;;;;;;;;;26.90;93.50;;;;;;5084284;28;20056;-53
2022/06/09 03:29:31;;;;;;;;;;;26.80;93.40;;;;;;5084008;28;20194;-55
2022/06/09 03:31:57;;;;;;;;;;;26.90;93.40;;;;;;5083937;28;19900;-53
2022/06/09 03:34:23;;;;;;;;;;;26.90;93.40;;;;;;5082127;28;19946;-55
2022/06/09 03:36:49;;;;;;;;;;;26.80;93.40;;;;;;5083514;28;19946;-54
2022/06/09 03:39:16;;;;;;;;;;;26.80;93.40;;;;;;5092150;28;24061;-57
2022/06/09 03:41:42;;;;;;;;;;;26.80;93.30;;;;;;5082326;28;19900;-54
2022/06/09 03:44:08;;;;;;;;;;;26.80;93.30;;;;;;5082245;28;20204;-57
2022/06/09 03:46:35;;;;;;;;;;;26.80;93.30;;;;;;5082257;28;19904;-54
2022/06/09 03:49:02;;;;;;;;;;;26.80;93.30;;;;;;5083595;28;19901;-54
2022/06/09 03:51:28;;;;;;;;;;;26.80;93.20;;;;;;5084181;28;20180;-54
2022/06/09 03:53:54;;;;;;;;;;;26.80;93.20;;;;;;5083488;28;19970;-55
2022/06/09 03:56:22;;;;;;;;;;;26.80;93.10;;;;;;5083486;28;19923;-54
2022/06/09 03:58:48;;;;;;;;;;;26.70;93.00;;;;;;5086442;28;19905;-59
2022/06/09 04:01:17;;;;;;;;;;;26.70;93.00;;;;;;5087811;28;20088;-53
2022/06/09 04:03:44;;;;;;;;;;;26.70;93.00;;;;;;5087336;28;19970;-55
2022/06/09 04:06:14;;;;;;;;;;;26.70;92.90;;;;;;5087635;28;20226;-54
2022/06/09 04:08:41;;;;;;;;;;;26.70;92.80;;;;;;5087483;28;19905;-54
2022/06/09 04:11:09;;;;;;;;;;;26.70;92.70;;;;;;5087915;28;19905;-54
2022/06/09 04:13:36;;;;;;;;;;;26.70;92.70;;;;;;5087409;28;19904;-53
2022/06/09 04:16:09;;;;;;;;;;;26.70;92.60;;;;;;5087134;28;19916;-54
2022/06/09 04:18:35;;;;;;;;;;;26.70;92.40;;;;;;5087408;28;19963;-55
2022/06/09 04:21:02;;;;;;;;;;;26.70;92.30;;;;;;5087682;28;19915;-50
2022/06/09 04:23:28;;;;;;;;;;;26.70;92.20;;;;;;5087267;28;19940;-55
2022/06/09 04:25:54;;;;;;;;;;;26.70;92.00;;;;;;5087325;28;20177;-53
2022/06/09 04:28:20;;;;;;;;;;;26.70;92.10;;;;;;5087312;28;19907;-53
2022/06/09 04:30:46;;;;;;;;;;;26.70;92.10;;;;;;5087661;28;19908;-52
2022/06/09 04:33:13;;;;;;;;;;;26.60;91.80;;;;;;5087577;28;19936;-58
2022/06/09 04:35:39;;;;;;;;;;;26.60;91.80;;;;;;5087857;28;19912;-53
2022/06/09 04:38:07;;;;;;;;;;;26.70;91.80;;;;;;5093351;28;20066;-53
2022/06/09 04:40:34;;;;;;;;;;;26.60;91.70;;;;;;5101469;28;19908;-55
2022/06/09 04:43:01;;;;;;;;;;;26.60;91.60;;;;;;5103174;28;19900;-55
2022/06/09 04:45:28;;;;;;;;;;;26.60;91.50;;;;;;5087117;28;20088;-56
2022/06/09 04:47:54;;;;;;;;;;;26.60;91.60;;;;;;5087193;28;19927;-57
2022/06/09 04:50:21;;;;;;;;;;;26.60;91.50;;;;;;5099949;28;19931;-55
2022/06/09 04:52:47;;;;;;;;;;;26.60;91.40;;;;;;5107245;28;19900;-54
2022/06/09 04:55:13;;;;;;;;;;;26.60;91.40;;;;;;5107562;28;19919;-56
2022/06/09 04:57:40;;;;;;;;;;;26.60;91.50;;;;;;5107038;28;20097;-55
2022/06/09 05:00:08;;;;;;;;;;;26.60;91.40;;;;;;5107174;28;19915;-55
2022/06/09 05:02:34;;;;;;;;;;;26.60;91.40;;;;;;5107062;28;19931;-56
2022/06/09 05:05:01;;;;;;;;;;;26.60;91.50;;;;;;5106430;28;20185;-56
2022/06/09 05:07:28;;;;;;;;;;;26.60;91.50;;;;;;5106726;28;19900;-55
2022/06/09 05:09:54;;;;;;;;;;;26.60;91.40;;;;;;5106553;28;19908;-56
2022/06/09 05:12:21;;;;;;;;;;;26.60;91.50;;;;;;5106461;28;19906;-56
2022/06/09 05:14:47;;;;;;;;;;;26.60;91.50;;;;;;5105753;28;19984;-55
2022/06/09 05:17:13;;;;;;;;;;;26.60;91.60;;;;;;5106325;28;19927;-54
2022/06/09 05:19:39;;;;;;;;;;;26.60;91.60;;;;;;5106425;28;24065;-52
2022/06/09 05:22:06;;;;;;;;;;;26.60;91.60;;;;;;5106396;28;19908;-53
2022/06/09 05:24:32;;;;;;;;;;;26.60;91.60;;;;;;5106598;28;19923;-53
2022/06/09 05:26:58;;;;;;;;;;;26.60;91.60;;;;;;5106607;28;19907;-54
2022/06/09 05:29:24;;;;;;;;;;;26.60;91.70;;;;;;5106215;28;19920;-54
2022/06/09 05:31:50;;;;;;;;;;;26.60;91.60;;;;;;5106181;28;19900;-54
2022/06/09 05:34:16;;;;;;;;;;;26.50;91.70;;;;;;5106547;28;19900;-55
2022/06/09 05:36:42;;;;;;;;;;;26.50;91.60;;;;;;5106284;28;19987;-54
2022/06/09 05:44:54;;;;;;;;;;;26.50;91.70;;;;;;5106749;28;19930;-54
2022/06/09 05:47:21;;;;;;;;;;;26.50;91.60;;;;;;5105763;28;19900;-53
2022/06/09 05:49:48;;;;;;;;;;;26.50;91.60;;;;;;5106150;28;19919;-54
2022/06/09 05:52:15;;;;;;;;;;;26.50;91.60;;;;;;5106276;28;19915;-57
2022/06/09 05:54:41;;;;;;;;;;;26.50;91.50;;;;;;5105959;28;19915;-55
2022/06/09 05:57:08;;;;;;;;;;;26.50;91.50;;;;;;5106203;28;19900;-56
2022/06/09 05:59:35;;;;;;;;;;;26.50;91.50;;;;;;5106231;28;19908;-54
2022/06/09 06:02:01;;;;;;;;;;;26.50;91.50;;;;;;5106481;28;19921;-55
2022/06/09 06:04:27;;;;;;;;;;;26.50;91.50;;;;;;5105506;28;19908;-55
2022/06/09 06:06:53;;;;;;;;;;;26.50;91.50;;;;;;5105778;28;19906;-56
2022/06/09 06:09:23;;;;;;;;;;;26.50;91.50;;;;;;5105498;28;20274;-53
2022/06/09 06:11:50;;;;;;;;;;;26.40;91.40;;;;;;5105518;28;20211;-54
2022/06/09 06:14:17;;;;;;;;;;;26.40;91.60;;;;;;5105642;28;19971;-54
2022/06/09 06:16:43;;;;;;;;;;;26.40;91.30;;;;;;5105581;28;19904;-54
2022/06/09 06:19:12;;;;;;;;;;;26.50;91.30;;;;;;5105890;28;19900;-56
2022/06/09 06:21:38;;;;;;;;;;;26.50;91.30;;;;;;5104804;28;19922;-55
2022/06/09 06:24:05;;;;;;;;;;;26.50;91.30;;;;;;5105515;28;19900;-55
2022/06/09 06:26:32;;;;;;;;;;;26.50;91.20;;;;;;5105783;28;19923;-54
2022/06/09 06:28:58;;;;;;;;;;;26.50;91.30;;;;;;5105494;28;19900;-54
2022/06/09 06:31:24;;;;;;;;;;;26.40;91.20;;;;;;5106063;28;19912;-54
2022/06/09 06:33:50;;;;;;;;;;;26.40;91.10;;;;;;5105126;28;19900;-54
2022/06/09 06:36:16;;;;;;;;;;;26.40;91.20;;;;;;5105904;28;19975;-55
2022/06/09 06:38:43;;;;;;;;;;;26.50;91.20;;;;;;5105049;28;19907;-60
2022/06/09 06:41:10;;;;;;;;;;;26.40;91.10;;;;;;5105187;28;19908;-54
2022/06/09 06:43:37;;;;;;;;;;;26.50;91.10;;;;;;5105301;28;20088;-54
2022/06/09 06:46:03;;;;;;;;;;;26.40;91.00;;;;;;5105515;28;19981;-57
2022/06/09 06:48:30;;;;;;;;;;;26.40;90.80;;;;;;5105269;28;19934;-54
2022/06/09 06:50:56;;;;;;;;;;;26.40;90.90;;;;;;5104810;28;19935;-54
2022/06/09 06:53:23;;;;;;;;;;;26.40;91.00;;;;;;5104838;28;19907;-54
2022/06/09 06:55:49;;;;;;;;;;;26.40;91.00;;;;;;5105528;28;19950;-55
2022/06/09 06:58:15;;;;;;;;;;;26.40;90.90;;;;;;5104773;28;24064;-55
2022/06/09 07:00:42;;;;;;;;;;;26.40;90.90;;;;;;5104970;28;19908;-54
2022/06/09 07:03:09;;;;;;;;;;;26.40;90.80;;;;;;5104816;28;19907;-53
2022/06/09 07:05:36;;;;;;;;;;;26.40;90.90;;;;;;5104948;28;19930;-55
2022/06/09 07:08:04;;;;;;;;;;;26.40;91.00;;;;;;5104614;28;24100;-54
2022/06/09 07:10:31;;;;;;;;;;;26.40;91.00;;;;;;5104871;28;19915;-52
2022/06/09 07:12:58;;;;;;;;;;;26.40;91.10;;;;;;5104610;28;19958;-55
2022/06/09 07:15:24;;;;;;;;;;;26.40;91.00;;;;;;5104399;28;19927;-55
2022/06/09 07:17:50;;;;;;;;;;;26.40;90.90;;;;;;5105009;28;19967;-53
2022/06/09 07:20:16;;;;;;;;;;;26.40;91.00;;;;;;5105558;28;19908;-54
2022/06/09 07:22:43;;;;;;;;;;;26.40;90.80;;;;;;5104888;28;19900;-54
2022/06/09 07:25:11;;;;;;;;;;;26.40;90.90;;;;;;5104682;28;19908;-54
2022/06/09 07:27:37;;;;;;;;;;;26.30;90.70;;;;;;5104706;28;19938;-54
2022/06/09 07:30:03;;;;;;;;;;;26.40;90.80;;;;;;5104704;28;20122;-58
2022/06/09 07:32:29;;;;;;;;;;;26.30;90.70;;;;;;5087424;28;19912;-55
2022/06/09 07:34:56;;;;;;;;;;;26.40;90.80;;;;;;5088237;28;19934;-54
2022/06/09 07:37:22;;;;;;;;;;;26.40;90.80;;;;;;5088855;28;19932;-54
2022/06/09 07:39:48;;;;;;;;;;;26.40;90.80;;;;;;5105287;28;19942;-55
2022/06/09 07:42:14;;;;;;;;;;;26.30;90.70;;;;;;5109171;28;19927;-54
2022/06/09 07:44:40;;;;;;;;;;;26.30;90.80;;;;;;5108807;28;19911;-54
2022/06/09 07:47:06;;;;;;;;;;;26.40;90.90;;;;;;5108961;28;19900;-54
2022/06/09 07:49:33;;;;;;;;;;;26.40;91.10;;;;;;5093669;28;19908;-54
2022/06/09 07:51:59;;;;;;;;;;;26.30;91.20;;;;;;5087826;28;20127;-54
2022/06/09 07:54:26;;;;;;;;;;;26.30;91.30;;;;;;5088060;28;19915;-61
2022/06/09 07:56:52;;;;;;;;;;;26.30;91.30;;;;;;5087893;28;19904;-56
2022/06/09 07:59:18;;;;;;;;;;;26.30;91.50;;;;;;5088721;28;19900;-54
2022/06/09 08:01:46;;;;;;;;;;;26.20;91.40;;;;;;5088024;28;19900;-54
2022/06/09 08:04:12;;;;;;;;;;;26.30;91.60;;;;;;5087840;28;20125;-54
2022/06/09 08:06:39;;;;;;;;;;;26.30;91.70;;;;;;5088411;28;20006;-57
2022/06/09 08:09:05;;;;;;;;;;;26.30;91.70;;;;;;5087852;28;19927;-53
2022/06/09 08:11:34;;;;;;;;;;;26.20;91.80;;;;;;5106115;28;20204;-52
2022/06/09 08:14:01;;;;;;;;;;;26.30;91.80;;;;;;5108265;28;20148;-54
2022/06/09 08:16:28;;;;;;;;;;;26.30;91.70;;;;;;5107499;28;19916;-57
2022/06/09 08:18:54;;;;;;;;;;;26.30;91.90;;;;;;5107724;28;19900;-54
2022/06/09 08:21:20;;;;;;;;;;;26.30;92.00;;;;;;5108841;28;19908;-53
2022/06/09 08:23:47;;;;;;;;;;;26.30;92.20;;;;;;5098819;28;20096;-54
2022/06/09 08:26:13;;;;;;;;;;;26.30;92.20;;;;;;5088206;28;19971;-54
2022/06/09 08:28:39;;;;;;;;;;;26.30;92.10;;;;;;5087259;28;19983;-55
2022/06/09 08:31:05;;;;;;;;;;;26.20;92.20;;;;;;5093769;28;19911;-54
2022/06/09 08:33:32;;;;;;;;;;;26.10;92.10;;;;;;5108029;28;19904;-53
2022/06/09 08:35:58;;;;;;;;;;;26.20;92.10;;;;;;5108187;28;19912;-54
2022/06/09 08:38:24;;;;;;;;;;;26.20;92.20;;;;;;5107605;28;19900;-54
2022/06/09 08:41:17;;;;;;;;;;;26.20;92.10;;;;;;5106968;28;20240;-56
2022/06/09 08:43:49;;;;;;;;;;;26.20;92.10;;;;;;5106893;28;19973;-54
2022/06/09 08:46:18;;;;;;;;;;;26.10;92.10;;;;;;5107793;28;19904;-52
2022/06/09 08:48:45;;;;;;;;;;;26.10;92.20;;;;;;5107571;28;19919;-54
2022/06/09 08:51:15;;;;;;;;;;;26.10;92.40;;;;;;5107672;28;19942;-56
2022/06/09 08:53:45;;;;;;;;;;;26.10;92.40;;;;;;5107578;28;19938;-55
2022/06/09 08:56:26;;;;;;;;;;;26.10;92.50;;;;;;5107305;28;24084;-55
2022/06/09 08:59:24;;;;;;;;;;;26.10;92.70;;;;;;5107411;28;19905;-53
2022/06/09 09:02:00;;;;;;;;;;;26.10;92.90;;;;;;5084655;28;19919;-54
2022/06/09 09:04:30;;;;;;;;;;;26.10;93.10;;;;;;5107504;28;19971;-54
2022/06/09 09:07:30;;;;;;;;;;;26.10;93.20;;;;;;5106596;28;19904;-54
2022/06/09 09:10:00;;;;;;;;;;;26.00;93.20;;;;;;5084388;28;19904;-54
2022/06/09 09:12:30;;;;;;;;;;;26.00;93.30;;;;;;5106797;28;19911;-54
2022/06/09 09:15:29;;;;;;;;;;;26.00;93.40;;;;;;5107290;28;19916;-56
2022/06/09 09:18:04;;;;;;;;;;;26.00;93.50;;;;;;5084092;28;19993;-56
2022/06/09 09:20:38;;;;;;;;;;;26.00;93.40;;;;;;5106894;28;19908;-54
2022/06/09 09:23:12;;;;;;;;;;;25.90;93.40;;;;;;5106496;28;19931;-55
2022/06/09 09:25:49;;;;;;;;;;;25.90;93.50;;;;;;5106271;28;19917;-54
2022/06/09 09:28:24;;;;;;;;;;;25.90;93.60;;;;;;5106569;28;19900;-54
2022/06/09 09:30:50;;;;;;;;;;;25.90;93.60;;;;;;5107077;28;19915;-57
2022/06/09 09:33:18;;;;;;;;;;;25.80;93.50;;;;;;5106496;28;19944;-54
2022/06/09 09:35:46;;;;;;;;;;;25.80;93.50;;;;;;5105089;28;19912;-53
2022/06/09 09:38:15;;;;;;;;;;;25.80;93.50;;;;;;5086187;28;19913;-54
2022/06/09 09:40:43;;;;;;;;;;;25.80;93.50;;;;;;5086298;28;19908;-56
2022/06/09 09:43:11;;;;;;;;;;;25.80;93.50;;;;;;5085733;28;19900;-58
2022/06/09 09:45:39;;;;;;;;;;;25.80;93.60;;;;;;5086626;28;19908;-54
2022/06/09 09:48:17;;;;;;;;;;;25.70;93.50;;;;;;5086616;28;19979;-54
2022/06/09 09:50:50;;;;;;;;;;;25.70;93.60;;;;;;5086065;28;19912;-54
2022/06/09 09:53:19;;;;;;;;;;;25.70;93.60;;;;;;5086148;28;19904;-56
2022/06/09 09:55:56;;;;;;;;;;;25.70;93.60;;;;;;5084902;28;19979;-52
2022/06/09 09:58:24;;;;;;;;;;;25.70;93.50;;;;;;5085487;28;24110;-56
2022/06/09 10:00:52;;;;;;;;;;;25.70;93.50;;;;;;5085936;28;19932;-54
2022/06/09 10:08:53;;;;;;;;;;;25.70;93.70;;;;;;5085584;28;20025;-54
2022/06/09 10:14:20;;;;;;;;;;;25.70;93.80;;;;;;5085665;28;19976;-54
2022/06/09 10:16:50;;;;;;;;;;;25.70;93.70;;;;;;5085392;28;19975;-52
2022/06/09 10:19:19;;;;;;;;;;;25.70;93.80;;;;;;5085072;28;19901;-54
2022/06/09 10:21:51;;;;;;;;;;;25.70;93.80;;;;;;5085175;28;19971;-56
2022/06/09 10:24:19;;;;;;;;;;;25.70;93.80;;;;;;5084865;28;20177;-57
2022/06/09 10:26:47;;;;;;;;;;;25.70;93.90;;;;;;5085331;28;19942;-56
2022/06/09 10:29:13;;;;;;;;;;;25.70;94.00;;;;;;5085307;28;19901;-55
2022/06/09 10:31:52;;;;;;;;;;;25.70;94.00;;;;;;5085088;28;19950;-59
2022/06/09 10:34:34;;;;;;;;;;;25.70;94.00;;;;;;5085142;28;19901;-54
2022/06/09 10:37:03;;;;;;;;;;;25.70;94.10;;;;;;5084685;28;19908;-56
2022/06/09 10:39:33;;;;;;;;;;;25.70;94.10;;;;;;5085651;28;19904;-55
2022/06/09 10:42:01;;;;;;;;;;;25.70;94.10;;;;;;5085179;28;19904;-56
2022/06/09 10:44:41;;;;;;;;;;;25.70;94.10;;;;;;5085152;28;19904;-53
2022/06/09 10:56:12;;;;;;;;;;;25.60;94.20;;;;;;5085046;28;19990;-51
2022/06/09 10:58:42;;;;;;;;;;;25.70;94.20;;;;;;5082480;28;19912;-53
2022/06/09 11:01:17;;;;;;;;;;;25.60;94.20;;;;;;5084833;28;19908;-54
2022/06/09 11:03:45;;;;;;;;;;;25.60;94.20;;;;;;5084129;28;19911;-50
2022/06/09 11:06:30;;;;;;;;;;;25.60;94.20;;;;;;5084483;28;19975;-55
2022/06/09 11:09:07;;;;;;;;;;;25.60;94.10;;;;;;5089944;28;19947;-53
2022/06/09 11:11:49;;;;;;;;;;;25.60;94.10;;;;;;5087208;28;20100;-51
2022/06/09 11:14:19;;;;;;;;;;;25.60;94.10;;;;;;5103432;28;19900;-59
2022/06/09 11:16:47;;;;;;;;;;;25.60;94.10;;;;;;5104690;28;19991;-52
2022/06/09 11:19:25;;;;;;;;;;;25.60;94.10;;;;;;5093020;28;19912;-54
2022/06/09 11:21:51;;;;;;;;;;;25.60;94.10;;;;;;5084296;28;19908;-55
2022/06/09 11:24:35;;;;;;;;;;;25.60;94.20;;;;;;5084566;28;19900;-54
2022/06/09 11:27:05;;;;;;;;;;;25.60;94.10;;;;;;5084642;28;19916;-54
2022/06/09 11:29:40;;;;;;;;;;;25.60;94.10;;;;;;5084168;28;19909;-56
2022/06/09 11:32:11;;;;;;;;;;;25.60;94.40;;;;;;5084447;28;20212;-54
2022/06/09 11:34:40;;;;;;;;;;;25.60;94.20;;;;;;5099087;28;19900;-54
2022/06/09 11:37:22;;;;;;;;;;;25.50;94.10;;;;;;5104155;28;19973;-53
2022/06/09 11:39:54;;;;;;;;;;;25.60;94.20;;;;;;5104172;28;19932;-55
2022/06/09 11:42:29;;;;;;;;;;;25.50;94.40;;;;;;5104381;28;19971;-54
2022/06/09 11:44:57;;;;;;;;;;;25.50;94.40;;;;;;5104684;28;24071;-55
2022/06/09 11:47:26;;;;;;;;;;;25.50;94.40;;;;;;5104689;28;20097;-56
2022/06/09 11:49:55;;;;;;;;;;;25.50;94.40;;;;;;5104845;28;19923;-55
2022/06/09 11:52:35;;;;;;;;;;;25.50;94.30;;;;;;5105004;28;19914;-58
2022/06/09 11:55:21;;;;;;;;;;;25.50;94.30;;;;;;5104173;28;19908;-53
2022/06/09 11:57:49;;;;;;;;;;;25.50;94.30;;;;;;5095322;28;19908;-59
2022/06/09 12:00:27;;;;;;;;;;;25.50;94.30;;;;;;5103037;28;19907;-55
2022/06/09 12:02:56;;;;;;;;;;;25.40;94.20;;;;;;5102568;28;20212;-56
2022/06/09 12:05:34;;;;;;;;;;;25.50;94.20;;;;;;5102628;28;19900;-57
2022/06/09 12:08:06;;;;;;;;;;;25.50;94.10;;;;;;5102441;28;19908;-56
2022/06/09 12:10:51;;;;;;;;;;;25.50;94.10;;;;;;5103483;28;19900;-56
2022/06/09 12:13:25;;;;;;;;;;;25.40;94.00;;;;;;5104473;28;20207;-62
2022/06/09 12:16:00;;;;;;;;;;;25.40;94.00;;;;;;5104581;28;19912;-56
2022/06/09 12:18:32;;;;;;;;;;;25.40;94.00;;;;;;5105283;28;19935;-54
2022/06/09 12:20:58;;;;;;;;;;;25.40;94.00;;;;;;5109050;28;19926;-58
2022/06/09 12:23:31;;;;;;;;;;;25.40;94.00;;;;;;5108379;28;19916;-57
2022/06/09 12:26:09;;;;;;;;;;;25.40;93.90;;;;;;5108752;28;19900;-57
2022/06/09 12:28:55;;;;;;;;;;;25.30;93.90;;;;;;5108427;28;19908;-56
2022/06/09 12:31:21;;;;;;;;;;;25.30;93.90;;;;;;5109018;28;20138;-56
2022/06/09 12:34:01;;;;;;;;;;;25.30;94.00;;;;;;5108227;28;19908;-58
2022/06/09 12:36:45;;;;;;;;;;;25.30;94.00;;;;;;5108963;28;19947;-56
2022/06/09 12:39:18;;;;;;;;;;;25.30;94.10;;;;;;5108239;28;19946;-56
2022/06/09 12:41:48;;;;;;;;;;;25.30;94.00;;;;;;5108403;28;19946;-57
2022/06/09 12:44:23;;;;;;;;;;;25.30;94.10;;;;;;5108167;28;19900;-56
2022/06/09 12:47:02;;;;;;;;;;;25.30;94.10;;;;;;5108273;28;19908;-55
2022/06/09 12:49:31;;;;;;;;;;;25.30;94.00;;;;;;5108155;28;20117;-56
2022/06/09 12:51:58;;;;;;;;;;;25.30;94.00;;;;;;5108232;28;19985;-60
2022/06/09 12:54:38;;;;;;;;;;;25.30;94.10;;;;;;5107908;28;19912;-56
2022/06/09 12:57:04;;;;;;;;;;;25.30;94.10;;;;;;5107974;28;19912;-56
2022/06/09 12:59:33;;;;;;;;;;;25.30;94.10;;;;;;5107762;28;19971;-58
2022/06/09 13:02:02;;;;;;;;;;;25.20;94.10;;;;;;5107833;28;19908;-57
2022/06/09 13:04:30;;;;;;;;;;;25.20;94.20;;;;;;5107894;28;19907;-56
2022/06/09 13:06:57;;;;;;;;;;;25.30;94.20;;;;;;5107768;28;19930;-57
2022/06/09 13:09:33;;;;;;;;;;;25.30;94.30;;;;;;5107641;28;19907;-53
2022/06/09 13:14:47;;;;;;;;;;;25.20;94.30;;;;;;5106739;28;19950;-57
2022/06/09 13:17:16;;;;;;;;;;;25.20;94.30;;;;;;5106621;28;19987;-57
2022/06/09 13:19:46;;;;;;;;;;;25.20;94.30;;;;;;5106616;28;19935;-58
2022/06/09 13:22:13;;;;;;;;;;;25.20;94.30;;;;;;5106435;28;19904;-56
2022/06/09 13:24:41;;;;;;;;;;;25.30;94.40;;;;;;5106690;28;19911;-57
2022/06/09 13:27:12;;;;;;;;;;;25.20;94.50;;;;;;5106946;28;19941;-56
2022/06/09 13:29:53;;;;;;;;;;;25.20;94.50;;;;;;5106661;28;19967;-56
2022/06/09 13:32:28;;;;;;;;;;;25.20;94.60;;;;;;5107402;28;19969;-56
2022/06/09 13:34:56;;;;;;;;;;;25.20;94.60;;;;;;5106537;28;19945;-56
2022/06/09 13:37:42;;;;;;;;;;;25.30;94.70;;;;;;5106671;28;19927;-56
2022/06/09 13:40:09;;;;;;;;;;;25.20;94.80;;;;;;5106763;28;19911;-56
2022/06/09 13:43:01;;;;;;;;;;;25.20;94.70;;;;;;5107468;28;19904;-56
2022/06/09 13:45:29;;;;;;;;;;;25.20;94.80;;;;;;5105128;28;19979;-59
2022/06/09 13:48:16;;;;;;;;;;;25.20;94.80;;;;;;5107004;28;19967;-56
2022/06/09 13:50:46;;;;;;;;;;;25.20;94.80;;;;;;5107102;28;19942;-57
2022/06/09 13:53:15;;;;;;;;;;;25.30;94.90;;;;;;5106749;28;19904;-55
2022/06/09 13:55:41;;;;;;;;;;;25.20;94.80;;;;;;5106810;28;19912;-57
2022/06/09 13:58:10;;;;;;;;;;;25.30;94.90;;;;;;5106464;28;19904;-57
2022/06/09 14:00:40;;;;;;;;;;;25.20;94.80;;;;;;5106901;28;19903;-57
2022/06/09 14:03:06;;;;;;;;;;;25.30;94.90;;;;;;5106628;28;20144;-56
2022/06/09 14:05:33;;;;;;;;;;;25.30;94.80;;;;;;5106807;28;19904;-56
2022/06/09 14:08:00;;;;;;;;;;;25.20;94.80;;;;;;5106333;28;19971;-56
2022/06/09 14:10:27;;;;;;;;;;;25.20;94.80;;;;;;5106599;28;20047;-54
2022/06/09 14:12:53;;;;;;;;;;;25.20;94.80;;;;;;5106137;28;20251;-57
2022/06/09 14:15:20;;;;;;;;;;;25.20;94.80;;;;;;5105787;28;19912;-56
2022/06/09 14:17:49;;;;;;;;;;;25.20;94.80;;;;;;5105990;28;19904;-57
2022/06/09 14:20:17;;;;;;;;;;;25.20;94.80;;;;;;5106294;28;20129;-59
2022/06/09 14:22:43;;;;;;;;;;;25.20;94.90;;;;;;5106340;28;19904;-55
2022/06/09 14:25:09;;;;;;;;;;;25.20;94.90;;;;;;5105666;28;19904;-56
2022/06/09 14:27:35;;;;;;;;;;;25.20;94.90;;;;;;5105898;28;20252;-57
2022/06/09 14:30:02;;;;;;;;;;;25.20;94.90;;;;;;5105678;28;19935;-58
2022/06/09 14:32:28;;;;;;;;;;;25.20;94.90;;;;;;5105554;28;19957;-57
2022/06/09 14:34:54;;;;;;;;;;;25.20;94.90;;;;;;5105181;28;19904;-64
2022/06/09 14:37:22;;;;;;;;;;;25.20;94.90;;;;;;5105319;28;19910;-56
2022/06/09 14:39:50;;;;;;;;;;;25.20;95.00;;;;;;5105406;28;19903;-56
2022/06/09 14:42:18;;;;;;;;;;;25.20;95.00;;;;;;5104544;28;19904;-59
2022/06/09 14:44:45;;;;;;;;;;;25.20;95.00;;;;;;5105531;28;20088;-56
2022/06/09 14:47:16;;;;;;;;;;;25.20;95.00;;;;;;5105419;28;19949;-57
2022/06/09 14:49:42;;;;;;;;;;;25.20;95.00;;;;;;5105135;28;20159;-57
2022/06/09 14:52:10;;;;;;;;;;;25.20;95.00;;;;;;5104866;28;19914;-57
2022/06/09 14:54:36;;;;;;;;;;;25.20;95.10;;;;;;5105095;28;19904;-57